sensor_id;sensor_type;location;lat;lon;timestamp;temperature;humidity
65864;SHT30;52639;51.180;20.460;2022-07-23T00:02:41;17.26;86.62
65864;SHT30;52639;51.180;20.460;2022-07-23T00:06:43;17.17;86.79
65864;SHT30;52639;51.180;20.460;2022-07-23T00:10:47;17.16;86.83
65864;SHT30;52639;51.180;20.460;2022-07-23T00:14:50;17.16;86.73
65864;SHT30;52639;51.180;20.460;2022-07-23T00:18:53;17.07;86.88
65864;SHT30;52639;51.180;20.460;2022-07-23T00:22:56;17.03;86.91
65864;SHT30;52639;51.180;20.460;2022-07-23T00:27:00;17.03;86.92
65864;SHT30;52639;51.180;20.460;2022-07-23T00:31:03;17.04;86.88
65864;SHT30;52639;51.180;20.460;2022-07-23T00:35:06;17.00;86.89
65864;SHT30;52639;51.180;20.460;2022-07-23T00:39:08;16.96;86.88
65864;SHT30;52639;51.180;20.460;2022-07-23T00:43:12;16.93;86.81
65864;SHT30;52639;51.180;20.460;2022-07-23T00:47:16;16.86;86.85
65864;SHT30;52639;51.180;20.460;2022-07-23T00:51:18;16.77;87.05
65864;SHT30;52639;51.180;20.460;2022-07-23T00:55:21;16.69;87.12
65864;SHT30;52639;51.180;20.460;2022-07-23T00:59:25;16.69;87.10
65864;SHT30;52639;51.180;20.460;2022-07-23T01:03:28;16.65;87.06
65864;SHT30;52639;51.180;20.460;2022-07-23T01:07:31;16.59;87.21
65864;SHT30;52639;51.180;20.460;2022-07-23T01:11:36;16.52;87.26
65864;SHT30;52639;51.180;20.460;2022-07-23T01:15:40;16.45;87.37
65864;SHT30;52639;51.180;20.460;2022-07-23T01:19:42;16.48;87.30
65864;SHT30;52639;51.180;20.460;2022-07-23T01:23:46;16.45;87.24
65864;SHT30;52639;51.180;20.460;2022-07-23T01:27:50;16.42;87.21
65864;SHT30;52639;51.180;20.460;2022-07-23T01:31:53;16.49;87.15
65864;SHT30;52639;51.180;20.460;2022-07-23T01:35:55;16.49;86.95
65864;SHT30;52639;51.180;20.460;2022-07-23T01:40:00;16.46;87.07
65864;SHT30;52639;51.180;20.460;2022-07-23T01:44:02;16.46;87.07
65864;SHT30;52639;51.180;20.460;2022-07-23T01:48:06;16.48;86.99
65864;SHT30;52639;51.180;20.460;2022-07-23T01:52:09;16.36;87.24
65864;SHT30;52639;51.180;20.460;2022-07-23T01:56:13;16.33;87.26
65864;SHT30;52639;51.180;20.460;2022-07-23T02:00:16;16.35;87.25
65864;SHT30;52639;51.180;20.460;2022-07-23T02:04:20;16.35;87.20
65864;SHT30;52639;51.180;20.460;2022-07-23T02:08:22;16.30;87.21
65864;SHT30;52639;51.180;20.460;2022-07-23T02:12:26;16.23;87.46
65864;SHT30;52639;51.180;20.460;2022-07-23T02:16:29;16.25;87.46
65864;SHT30;52639;51.180;20.460;2022-07-23T02:20:32;16.23;87.45
65864;SHT30;52639;51.180;20.460;2022-07-23T02:24:34;16.15;87.46
65864;SHT30;52639;51.180;20.460;2022-07-23T02:28:39;15.98;87.86
65864;SHT30;52639;51.180;20.460;2022-07-23T02:32:41;15.97;88.02
65864;SHT30;52639;51.180;20.460;2022-07-23T02:36:44;15.95;87.89
65864;SHT30;52639;51.180;20.460;2022-07-23T02:40:47;15.94;87.84
65864;SHT30;52639;51.180;20.460;2022-07-23T02:44:51;15.88;87.93
65864;SHT30;52639;51.180;20.460;2022-07-23T02:48:54;15.90;87.88
65864;SHT30;52639;51.180;20.460;2022-07-23T02:52:57;15.88;87.82
65864;SHT30;52639;51.180;20.460;2022-07-23T02:57:00;15.84;87.87
65864;SHT30;52639;51.180;20.460;2022-07-23T03:01:04;15.85;87.76
65864;SHT30;52639;51.180;20.460;2022-07-23T03:05:07;15.90;87.66
65864;SHT30;52639;51.180;20.460;2022-07-23T03:09:10;15.90;87.51
65864;SHT30;52639;51.180;20.460;2022-07-23T03:13:13;15.84;87.47
65864;SHT30;52639;51.180;20.460;2022-07-23T03:17:17;15.81;87.69
65864;SHT30;52639;51.180;20.460;2022-07-23T03:21:19;15.90;87.45
65864;SHT30;52639;51.180;20.460;2022-07-23T03:25:22;15.94;87.28
65864;SHT30;52639;51.180;20.460;2022-07-23T03:29:25;15.97;87.31
65864;SHT30;52639;51.180;20.460;2022-07-23T03:33:29;16.04;87.11
65864;SHT30;52639;51.180;20.460;2022-07-23T03:37:32;16.02;87.12
65864;SHT30;52639;51.180;20.460;2022-07-23T03:41:34;16.04;87.11
65864;SHT30;52639;51.180;20.460;2022-07-23T03:45:37;16.09;87.06
65864;SHT30;52639;51.180;20.460;2022-07-23T03:49:41;16.23;86.86
65864;SHT30;52639;51.180;20.460;2022-07-23T03:53:44;16.35;86.67
65864;SHT30;52639;51.180;20.460;2022-07-23T03:57:46;16.41;86.55
65864;SHT30;52639;51.180;20.460;2022-07-23T04:01:49;16.55;86.34
65864;SHT30;52639;51.180;20.460;2022-07-23T04:05:53;16.67;86.20
65864;SHT30;52639;51.180;20.460;2022-07-23T04:09:56;16.77;86.19
65864;SHT30;52639;51.180;20.460;2022-07-23T04:13:59;16.93;85.96
65864;SHT30;52639;51.180;20.460;2022-07-23T04:18:01;17.06;85.80
65864;SHT30;52639;51.180;20.460;2022-07-23T04:22:07;17.23;85.57
65864;SHT30;52639;51.180;20.460;2022-07-23T04:26:10;17.37;85.42
65864;SHT30;52639;51.180;20.460;2022-07-23T04:30:12;17.55;85.19
65864;SHT30;52639;51.180;20.460;2022-07-23T04:34:15;17.71;84.91
65864;SHT30;52639;51.180;20.460;2022-07-23T04:38:19;17.94;84.58
65864;SHT30;52639;51.180;20.460;2022-07-23T04:42:22;18.63;83.43
65864;SHT30;52639;51.180;20.460;2022-07-23T04:46:24;19.07;82.29
65864;SHT30;52639;51.180;20.460;2022-07-23T04:50:27;18.96;83.05
65864;SHT30;52639;51.180;20.460;2022-07-23T04:54:31;19.04;83.05
65864;SHT30;52639;51.180;20.460;2022-07-23T04:58:37;19.25;82.87
65864;SHT30;52639;51.180;20.460;2022-07-23T05:02:39;19.66;82.25
65864;SHT30;52639;51.180;20.460;2022-07-23T05:06:42;19.92;81.58
65864;SHT30;52639;51.180;20.460;2022-07-23T05:10:46;20.08;81.52
65864;SHT30;52639;51.180;20.460;2022-07-23T05:14:49;20.40;80.78
65864;SHT30;52639;51.180;20.460;2022-07-23T05:18:53;20.79;80.13
65864;SHT30;52639;51.180;20.460;2022-07-23T05:22:56;21.10;79.49
65864;SHT30;52639;51.180;20.460;2022-07-23T05:27:00;21.18;79.47
65864;SHT30;52639;51.180;20.460;2022-07-23T05:31:03;21.27;79.66
65864;SHT30;52639;51.180;20.460;2022-07-23T05:35:06;21.44;79.81
65864;SHT30;52639;51.180;20.460;2022-07-23T05:39:10;21.58;79.97
65864;SHT30;52639;51.180;20.460;2022-07-23T05:43:14;22.02;79.16
65864;SHT30;52639;51.180;20.460;2022-07-23T05:47:17;21.95;79.74
65864;SHT30;52639;51.180;20.460;2022-07-23T05:51:20;21.96;80.06
65864;SHT30;52639;51.180;20.460;2022-07-23T05:55:24;22.09;79.87
65864;SHT30;52639;51.180;20.460;2022-07-23T05:59:28;22.29;79.73
65864;SHT30;52639;51.180;20.460;2022-07-23T06:03:32;22.97;78.09
65864;SHT30;52639;51.180;20.460;2022-07-23T06:07:35;23.68;76.26
65864;SHT30;52639;51.180;20.460;2022-07-23T06:11:38;23.93;75.73
65864;SHT30;52639;51.180;20.460;2022-07-23T06:15:43;24.44;74.76
65864;SHT30;52639;51.180;20.460;2022-07-23T06:19:46;25.97;70.99
65864;SHT30;52639;51.180;20.460;2022-07-23T06:23:50;27.20;68.06
65864;SHT30;52639;51.180;20.460;2022-07-23T06:27:53;28.14;66.08
65864;SHT30;52639;51.180;20.460;2022-07-23T06:31:58;28.65;65.42
65864;SHT30;52639;51.180;20.460;2022-07-23T06:36:02;29.24;64.40
65864;SHT30;52639;51.180;20.460;2022-07-23T06:40:08;29.79;63.16
65864;SHT30;52639;51.180;20.460;2022-07-23T06:44:16;30.73;60.76
65864;SHT30;52639;51.180;20.460;2022-07-23T06:48:27;31.22;59.67
65864;SHT30;52639;51.180;20.460;2022-07-23T06:52:38;31.72;59.51
65864;SHT30;52639;51.180;20.460;2022-07-23T06:56:56;31.88;59.32
65864;SHT30;52639;51.180;20.460;2022-07-23T07:01:09;32.63;57.39
65864;SHT30;52639;51.180;20.460;2022-07-23T07:05:21;33.11;55.57
65864;SHT30;52639;51.180;20.460;2022-07-23T07:09:52;33.57;54.60
65864;SHT30;52639;51.180;20.460;2022-07-23T07:14:20;34.50;51.79
65864;SHT30;52639;51.180;20.460;2022-07-23T07:18:50;34.63;51.64
65864;SHT30;52639;51.180;20.460;2022-07-23T07:23:22;35.20;50.00
65864;SHT30;52639;51.180;20.460;2022-07-23T07:27:42;35.74;48.98
65864;SHT30;52639;51.180;20.460;2022-07-23T07:31:53;35.99;48.21
65864;SHT30;52639;51.180;20.460;2022-07-23T07:36:08;36.01;48.20
65864;SHT30;52639;51.180;20.460;2022-07-23T07:40:24;35.81;47.65
65864;SHT30;52639;51.180;20.460;2022-07-23T07:44:37;35.78;47.21
65864;SHT30;52639;51.180;20.460;2022-07-23T07:48:53;35.88;46.64
65864;SHT30;52639;51.180;20.460;2022-07-23T07:53:08;36.35;45.51
65864;SHT30;52639;51.180;20.460;2022-07-23T07:57:45;36.42;45.19
65864;SHT30;52639;51.180;20.460;2022-07-23T08:02:09;36.09;45.43
65864;SHT30;52639;51.180;20.460;2022-07-23T08:06:45;35.40;47.19
65864;SHT30;52639;51.180;20.460;2022-07-23T08:11:06;35.47;46.34
65864;SHT30;52639;51.180;20.460;2022-07-23T08:15:29;36.06;43.95
65864;SHT30;52639;51.180;20.460;2022-07-23T08:19:48;36.73;41.77
65864;SHT30;52639;51.180;20.460;2022-07-23T08:23:52;37.33;39.94
65864;SHT30;52639;51.180;20.460;2022-07-23T08:27:56;37.61;39.58
65864;SHT30;52639;51.180;20.460;2022-07-23T08:32:01;36.82;41.93
65864;SHT30;52639;51.180;20.460;2022-07-23T08:36:05;36.21;43.14
65864;SHT30;52639;51.180;20.460;2022-07-23T08:40:09;36.22;42.49
65864;SHT30;52639;51.180;20.460;2022-07-23T08:44:13;37.11;41.21
65864;SHT30;52639;51.180;20.460;2022-07-23T08:48:20;36.53;42.01
65864;SHT30;52639;51.180;20.460;2022-07-23T08:52:26;36.49;42.31
65864;SHT30;52639;51.180;20.460;2022-07-23T08:56:34;35.78;43.34
65864;SHT30;52639;51.180;20.460;2022-07-23T09:00:46;36.35;41.84
65864;SHT30;52639;51.180;20.460;2022-07-23T09:04:59;36.01;41.42
65864;SHT30;52639;51.180;20.460;2022-07-23T09:09:18;35.34;42.62
65864;SHT30;52639;51.180;20.460;2022-07-23T09:13:51;35.45;42.71
65864;SHT30;52639;51.180;20.460;2022-07-23T09:18:07;35.77;41.74
65864;SHT30;52639;51.180;20.460;2022-07-23T09:22:20;35.57;41.40
65864;SHT30;52639;51.180;20.460;2022-07-23T09:26:33;35.68;40.99
65864;SHT30;52639;51.180;20.460;2022-07-23T09:30:42;35.31;41.43
65864;SHT30;52639;51.180;20.460;2022-07-23T09:34:57;35.47;40.71
65864;SHT30;52639;51.180;20.460;2022-07-23T09:39:22;35.41;40.32
65864;SHT30;52639;51.180;20.460;2022-07-23T09:43:45;35.18;40.84
65864;SHT30;52639;51.180;20.460;2022-07-23T09:48:17;34.71;40.90
65864;SHT30;52639;51.180;20.460;2022-07-23T09:52:47;34.33;41.27
65864;SHT30;52639;51.180;20.460;2022-07-23T09:56:59;33.98;41.34
65864;SHT30;52639;51.180;20.460;2022-07-23T10:01:06;33.89;41.41
65864;SHT30;52639;51.180;20.460;2022-07-23T10:05:12;33.47;41.76
65864;SHT30;52639;51.180;20.460;2022-07-23T10:09:23;33.38;41.70
65864;SHT30;52639;51.180;20.460;2022-07-23T10:13:30;33.07;41.21
65864;SHT30;52639;51.180;20.460;2022-07-23T10:17:52;32.83;41.24
65864;SHT30;52639;51.180;20.460;2022-07-23T10:22:00;32.53;41.34
65864;SHT30;52639;51.180;20.460;2022-07-23T10:26:10;32.37;41.38
65864;SHT30;52639;51.180;20.460;2022-07-23T10:30:30;32.29;41.23
65864;SHT30;52639;51.180;20.460;2022-07-23T10:34:43;32.14;41.02
65864;SHT30;52639;51.180;20.460;2022-07-23T10:38:52;32.12;40.98
65864;SHT30;52639;51.180;20.460;2022-07-23T10:42:59;32.09;40.74
65864;SHT30;52639;51.180;20.460;2022-07-23T10:47:05;32.03;40.53
65864;SHT30;52639;51.180;20.460;2022-07-23T10:51:22;31.89;40.68
65864;SHT30;52639;51.180;20.460;2022-07-23T10:55:49;31.78;40.03
65864;SHT30;52639;51.180;20.460;2022-07-23T11:00:21;31.69;39.69
65864;SHT30;52639;51.180;20.460;2022-07-23T11:04:52;31.62;39.54
65864;SHT30;52639;51.180;20.460;2022-07-23T11:09:23;31.58;40.54
65864;SHT30;52639;51.180;20.460;2022-07-23T11:13:32;31.49;40.85
65864;SHT30;52639;51.180;20.460;2022-07-23T11:17:58;31.63;40.77
65864;SHT30;52639;51.180;20.460;2022-07-23T11:22:04;31.63;40.08
65864;SHT30;52639;51.180;20.460;2022-07-23T11:26:07;31.76;39.64
65864;SHT30;52639;51.180;20.460;2022-07-23T11:30:38;31.58;39.37
65864;SHT30;52639;51.180;20.460;2022-07-23T11:34:43;31.65;39.31
65864;SHT30;52639;51.180;20.460;2022-07-23T11:38:50;31.86;38.97
65864;SHT30;52639;51.180;20.460;2022-07-23T11:42:56;32.12;38.52
65864;SHT30;52639;51.180;20.460;2022-07-23T11:47:02;32.33;38.53
65864;SHT30;52639;51.180;20.460;2022-07-23T11:51:06;32.40;38.54
65864;SHT30;52639;51.180;20.460;2022-07-23T11:55:12;32.36;38.47
65864;SHT30;52639;51.180;20.460;2022-07-23T11:59:18;32.08;40.06
65864;SHT30;52639;51.180;20.460;2022-07-23T12:03:22;31.72;40.30
65864;SHT30;52639;51.180;20.460;2022-07-23T12:07:29;31.29;41.49
65864;SHT30;52639;51.180;20.460;2022-07-23T12:11:34;31.14;42.00
65864;SHT30;52639;51.180;20.460;2022-07-23T12:15:40;30.81;42.98
65864;SHT30;52639;51.180;20.460;2022-07-23T12:19:46;30.98;44.35
65864;SHT30;52639;51.180;20.460;2022-07-23T12:23:50;30.92;45.22
65864;SHT30;52639;51.180;20.460;2022-07-23T12:28:06;30.70;45.87
65864;SHT30;52639;51.180;20.460;2022-07-23T12:32:23;30.78;46.20
65864;SHT30;52639;51.180;20.460;2022-07-23T12:36:38;31.06;46.16
65864;SHT30;52639;51.180;20.460;2022-07-23T12:40:49;31.61;43.39
65864;SHT30;52639;51.180;20.460;2022-07-23T12:45:08;31.61;42.80
65864;SHT30;52639;51.180;20.460;2022-07-23T12:49:25;31.99;41.38
65864;SHT30;52639;51.180;20.460;2022-07-23T12:53:31;32.26;40.89
65864;SHT30;52639;51.180;20.460;2022-07-23T12:57:47;32.03;41.00
65864;SHT30;52639;51.180;20.460;2022-07-23T13:01:56;31.65;43.05
65864;SHT30;52639;51.180;20.460;2022-07-23T13:06:05;31.31;43.34
65864;SHT30;52639;51.180;20.460;2022-07-23T13:10:09;31.27;42.87
65864;SHT30;52639;51.180;20.460;2022-07-23T13:14:17;31.10;43.92
65864;SHT30;52639;51.180;20.460;2022-07-23T13:18:22;31.01;43.95
65864;SHT30;52639;51.180;20.460;2022-07-23T13:22:27;30.95;43.37
65864;SHT30;52639;51.180;20.460;2022-07-23T13:26:30;30.40;44.19
65864;SHT30;52639;51.180;20.460;2022-07-23T13:30:34;29.83;46.82
65864;SHT30;52639;51.180;20.460;2022-07-23T13:34:38;29.54;48.00
65864;SHT30;52639;51.180;20.460;2022-07-23T13:38:45;29.51;48.37
65864;SHT30;52639;51.180;20.460;2022-07-23T13:42:49;29.72;48.19
65864;SHT30;52639;51.180;20.460;2022-07-23T13:46:53;29.96;48.10
65864;SHT30;52639;51.180;20.460;2022-07-23T13:50:57;30.03;48.76
65864;SHT30;52639;51.180;20.460;2022-07-23T13:55:01;30.09;49.11
65864;SHT30;52639;51.180;20.460;2022-07-23T13:59:05;30.06;49.09
65864;SHT30;52639;51.180;20.460;2022-07-23T14:03:09;29.90;49.20
65864;SHT30;52639;51.180;20.460;2022-07-23T14:07:17;29.83;49.60
65864;SHT30;52639;51.180;20.460;2022-07-23T14:11:26;29.58;50.28
65864;SHT30;52639;51.180;20.460;2022-07-23T14:15:35;29.35;51.28
65864;SHT30;52639;51.180;20.460;2022-07-23T14:19:44;29.25;51.80
65864;SHT30;52639;51.180;20.460;2022-07-23T14:23:50;29.14;51.41
65864;SHT30;52639;51.180;20.460;2022-07-23T14:27:54;28.98;51.38
65864;SHT30;52639;51.180;20.460;2022-07-23T14:31:57;28.80;52.17
65864;SHT30;52639;51.180;20.460;2022-07-23T14:36:02;28.61;52.98
65864;SHT30;52639;51.180;20.460;2022-07-23T14:40:08;28.43;53.43
65864;SHT30;52639;51.180;20.460;2022-07-23T14:44:12;28.33;53.86
65864;SHT30;52639;51.180;20.460;2022-07-23T14:48:16;28.26;54.15
65864;SHT30;52639;51.180;20.460;2022-07-23T14:52:19;28.20;54.60
65864;SHT30;52639;51.180;20.460;2022-07-23T14:56:25;28.12;54.72
65864;SHT30;52639;51.180;20.460;2022-07-23T15:00:28;28.06;54.86
65864;SHT30;52639;51.180;20.460;2022-07-23T15:04:32;27.72;55.15
65864;SHT30;52639;51.180;20.460;2022-07-23T15:08:35;27.00;56.11
65864;SHT30;52639;51.180;20.460;2022-07-23T15:12:40;26.57;56.64
65864;SHT30;52639;51.180;20.460;2022-07-23T15:16:44;26.07;57.42
65864;SHT30;52639;51.180;20.460;2022-07-23T15:20:47;25.90;57.80
65864;SHT30;52639;51.180;20.460;2022-07-23T15:24:51;25.64;58.51
65864;SHT30;52639;51.180;20.460;2022-07-23T15:29:00;25.22;59.51
65864;SHT30;52639;51.180;20.460;2022-07-23T15:33:13;24.86;60.09
65864;SHT30;52639;51.180;20.460;2022-07-23T15:37:18;24.52;60.86
65864;SHT30;52639;51.180;20.460;2022-07-23T15:41:33;24.05;61.80
65864;SHT30;52639;51.180;20.460;2022-07-23T15:45:45;23.47;63.32
65864;SHT30;52639;51.180;20.460;2022-07-23T15:49:54;23.11;64.07
65864;SHT30;52639;51.180;20.460;2022-07-23T15:54:08;22.93;64.99
65864;SHT30;52639;51.180;20.460;2022-07-23T15:58:14;22.86;65.01
65864;SHT30;52639;51.180;20.460;2022-07-23T16:02:28;22.96;64.94
65864;SHT30;52639;51.180;20.460;2022-07-23T16:06:35;22.96;64.55
65864;SHT30;52639;51.180;20.460;2022-07-23T16:10:41;23.00;64.24
65864;SHT30;52639;51.180;20.460;2022-07-23T16:14:46;22.93;64.39
65864;SHT30;52639;51.180;20.460;2022-07-23T16:18:51;22.83;64.67
65864;SHT30;52639;51.180;20.460;2022-07-23T16:22:55;22.78;64.56
65864;SHT30;52639;51.180;20.460;2022-07-23T16:26:58;22.74;64.56
65864;SHT30;52639;51.180;20.460;2022-07-23T16:31:02;22.64;64.64
65864;SHT30;52639;51.180;20.460;2022-07-23T16:35:08;22.52;64.86
65864;SHT30;52639;51.180;20.460;2022-07-23T16:39:12;22.42;64.85
65864;SHT30;52639;51.180;20.460;2022-07-23T16:43:15;22.33;64.87
65864;SHT30;52639;51.180;20.460;2022-07-23T16:47:18;22.23;64.99
65864;SHT30;52639;51.180;20.460;2022-07-23T16:51:25;22.13;65.28
65864;SHT30;52639;51.180;20.460;2022-07-23T16:55:31;22.02;65.29
65864;SHT30;52639;51.180;20.460;2022-07-23T16:59:37;21.95;65.19
65864;SHT30;52639;51.180;20.460;2022-07-23T17:03:41;21.92;65.10
65864;SHT30;52639;51.180;20.460;2022-07-23T17:07:51;21.89;65.42
65864;SHT30;52639;51.180;20.460;2022-07-23T17:11:56;21.78;65.74
65864;SHT30;52639;51.180;20.460;2022-07-23T17:15:59;21.72;66.24
65864;SHT30;52639;51.180;20.460;2022-07-23T17:20:07;21.62;67.14
65864;SHT30;52639;51.180;20.460;2022-07-23T17:24:19;21.42;68.04
65864;SHT30;52639;51.180;20.460;2022-07-23T17:28:26;21.28;68.38
65864;SHT30;52639;51.180;20.460;2022-07-23T17:32:32;21.15;68.66
65864;SHT30;52639;51.180;20.460;2022-07-23T17:36:35;20.97;69.33
65864;SHT30;52639;51.180;20.460;2022-07-23T17:40:41;20.83;70.03
65864;SHT30;52639;51.180;20.460;2022-07-23T17:44:46;20.77;70.29
65864;SHT30;52639;51.180;20.460;2022-07-23T17:48:56;20.74;70.71
65864;SHT30;52639;51.180;20.460;2022-07-23T17:53:01;20.76;70.86
65864;SHT30;52639;51.180;20.460;2022-07-23T17:57:08;20.84;71.21
65864;SHT30;52639;51.180;20.460;2022-07-23T18:01:13;20.97;71.11
65864;SHT30;52639;51.180;20.460;2022-07-23T18:05:18;21.03;71.14
65864;SHT30;52639;51.180;20.460;2022-07-23T18:09:23;21.07;71.18
65864;SHT30;52639;51.180;20.460;2022-07-23T18:13:30;21.01;71.52
65864;SHT30;52639;51.180;20.460;2022-07-23T18:17:35;20.97;71.74
65864;SHT30;52639;51.180;20.460;2022-07-23T18:21:38;20.88;72.21
65864;SHT30;52639;51.180;20.460;2022-07-23T18:25:43;20.84;72.56
65864;SHT30;52639;51.180;20.460;2022-07-23T18:29:50;20.73;73.28
65864;SHT30;52639;51.180;20.460;2022-07-23T18:33:54;20.66;73.53
65864;SHT30;52639;51.180;20.460;2022-07-23T18:37:59;20.62;73.61
65864;SHT30;52639;51.180;20.460;2022-07-23T18:42:04;20.53;74.02
65864;SHT30;52639;51.180;20.460;2022-07-23T18:46:14;20.50;74.22
65864;SHT30;52639;51.180;20.460;2022-07-23T18:50:18;20.39;74.25
65864;SHT30;52639;51.180;20.460;2022-07-23T18:54:22;20.29;74.61
65864;SHT30;52639;51.180;20.460;2022-07-23T18:58:26;20.12;74.92
65864;SHT30;52639;51.180;20.460;2022-07-23T19:02:31;19.95;75.49
65864;SHT30;52639;51.180;20.460;2022-07-23T19:06:35;19.83;75.79
65864;SHT30;52639;51.180;20.460;2022-07-23T19:10:38;19.75;75.97
65864;SHT30;52639;51.180;20.460;2022-07-23T19:14:41;19.58;76.40
65864;SHT30;52639;51.180;20.460;2022-07-23T19:18:46;19.53;76.75
65864;SHT30;52639;51.180;20.460;2022-07-23T19:22:50;19.39;77.09
65864;SHT30;52639;51.180;20.460;2022-07-23T19:26:53;19.24;77.59
65864;SHT30;52639;51.180;20.460;2022-07-23T19:30:57;19.14;77.86
65864;SHT30;52639;51.180;20.460;2022-07-23T19:35:03;19.06;78.24
65864;SHT30;52639;51.180;20.460;2022-07-23T19:39:08;19.07;78.16
65864;SHT30;52639;51.180;20.460;2022-07-23T19:43:12;19.00;78.30
65864;SHT30;52639;51.180;20.460;2022-07-23T19:47:27;19.01;78.38
65864;SHT30;52639;51.180;20.460;2022-07-23T19:51:52;19.01;78.55
65864;SHT30;52639;51.180;20.460;2022-07-23T19:55:56;19.01;79.67
65864;SHT30;52639;51.180;20.460;2022-07-23T20:00:02;19.01;78.09
65864;SHT30;52639;51.180;20.460;2022-07-23T20:04:07;19.03;78.23
65864;SHT30;52639;51.180;20.460;2022-07-23T20:08:23;19.04;78.44
65864;SHT30;52639;51.180;20.460;2022-07-23T20:12:34;18.99;78.69
65864;SHT30;52639;51.180;20.460;2022-07-23T20:16:39;18.99;78.84
65864;SHT30;52639;51.180;20.460;2022-07-23T20:21:07;19.00;79.13
65864;SHT30;52639;51.180;20.460;2022-07-23T20:25:41;19.00;78.93
65864;SHT30;52639;51.180;20.460;2022-07-23T20:29:45;18.97;78.95
65864;SHT30;52639;51.180;20.460;2022-07-23T20:33:56;18.93;79.27
65864;SHT30;52639;51.180;20.460;2022-07-23T20:38:00;18.90;79.38
65864;SHT30;52639;51.180;20.460;2022-07-23T20:42:06;18.96;79.49
65864;SHT30;52639;51.180;20.460;2022-07-23T20:46:10;19.01;79.41
65864;SHT30;52639;51.180;20.460;2022-07-23T20:50:15;19.03;79.56
65864;SHT30;52639;51.180;20.460;2022-07-23T20:54:20;19.04;79.64
65864;SHT30;52639;51.180;20.460;2022-07-23T20:58:26;19.00;79.96
65864;SHT30;52639;51.180;20.460;2022-07-23T21:02:32;19.07;79.98
65864;SHT30;52639;51.180;20.460;2022-07-23T21:06:38;19.06;80.12
65864;SHT30;52639;51.180;20.460;2022-07-23T21:10:46;18.99;80.51
65864;SHT30;52639;51.180;20.460;2022-07-23T21:14:52;18.90;80.89
65864;SHT30;52639;51.180;20.460;2022-07-23T21:19:05;18.89;81.00
65864;SHT30;52639;51.180;20.460;2022-07-23T21:23:08;18.97;80.99
65864;SHT30;52639;51.180;20.460;2022-07-23T21:27:14;18.96;81.26
65864;SHT30;52639;51.180;20.460;2022-07-23T21:31:19;18.90;81.58
65864;SHT30;52639;51.180;20.460;2022-07-23T21:35:26;18.89;81.78
65864;SHT30;52639;51.180;20.460;2022-07-23T21:39:32;18.83;82.03
65864;SHT30;52639;51.180;20.460;2022-07-23T21:43:39;18.76;82.23
65864;SHT30;52639;51.180;20.460;2022-07-23T21:47:46;18.73;82.51
65864;SHT30;52639;51.180;20.460;2022-07-23T21:51:50;18.77;82.52
65864;SHT30;52639;51.180;20.460;2022-07-23T21:55:55;18.71;82.68
65864;SHT30;52639;51.180;20.460;2022-07-23T21:59:59;18.61;82.92
65864;SHT30;52639;51.180;20.460;2022-07-23T22:04:04;18.57;83.15
65864;SHT30;52639;51.180;20.460;2022-07-23T22:08:08;18.56;83.25
65864;SHT30;52639;51.180;20.460;2022-07-23T22:12:11;18.42;83.58
65864;SHT30;52639;51.180;20.460;2022-07-23T22:16:15;18.33;83.84
65864;SHT30;52639;51.180;20.460;2022-07-23T22:20:19;18.24;84.10
65864;SHT30;52639;51.180;20.460;2022-07-23T22:24:24;18.21;84.14
65864;SHT30;52639;51.180;20.460;2022-07-23T22:28:27;18.18;84.26
65864;SHT30;52639;51.180;20.460;2022-07-23T22:32:30;18.21;84.21
65864;SHT30;52639;51.180;20.460;2022-07-23T22:36:35;18.26;84.15
65864;SHT30;52639;51.180;20.460;2022-07-23T22:40:38;18.32;83.92
65864;SHT30;52639;51.180;20.460;2022-07-23T22:44:41;18.30;84.14
65864;SHT30;52639;51.180;20.460;2022-07-23T22:48:44;18.35;84.14
65864;SHT30;52639;51.180;20.460;2022-07-23T22:52:48;18.40;84.14
65864;SHT30;52639;51.180;20.460;2022-07-23T22:56:51;18.43;84.20
65864;SHT30;52639;51.180;20.460;2022-07-23T23:00:53;18.45;84.29
65864;SHT30;52639;51.180;20.460;2022-07-23T23:04:56;18.49;84.31
65864;SHT30;52639;51.180;20.460;2022-07-23T23:09:00;18.50;84.41
65864;SHT30;52639;51.180;20.460;2022-07-23T23:13:03;18.52;84.48
65864;SHT30;52639;51.180;20.460;2022-07-23T23:17:06;18.48;84.68
65864;SHT30;52639;51.180;20.460;2022-07-23T23:21:09;18.42;84.91
65864;SHT30;52639;51.180;20.460;2022-07-23T23:25:13;18.40;85.05
65864;SHT30;52639;51.180;20.460;2022-07-23T23:29:16;18.42;85.01
65864;SHT30;52639;51.180;20.460;2022-07-23T23:33:19;18.46;84.96
65864;SHT30;52639;51.180;20.460;2022-07-23T23:37:22;18.53;84.96
65864;SHT30;52639;51.180;20.460;2022-07-23T23:41:27;18.49;85.08
65864;SHT30;52639;51.180;20.460;2022-07-23T23:45:31;18.55;85.07
65864;SHT30;52639;51.180;20.460;2022-07-23T23:49:34;18.53;85.17
65864;SHT30;52639;51.180;20.460;2022-07-23T23:53:37;18.50;85.30
65864;SHT30;52639;51.180;20.460;2022-07-23T23:57:41;18.46;85.54
